sensor_id;sensor_type;location;lat;lon;timestamp;pressure;altitude;pressure_sealevel;temperature;humidity
22572;BME280;11452;53.368;14.658;2022-08-25T00:01:15;101666.56;;;21.41;85.23
22572;BME280;11452;53.368;14.658;2022-08-25T00:06:22;101663.75;;;21.37;85.50
22572;BME280;11452;53.368;14.658;2022-08-25T00:11:30;101659.06;;;21.34;85.94
22572;BME280;11452;53.368;14.658;2022-08-25T00:16:37;101658.04;;;21.40;86.57
22572;BME280;11452;53.368;14.658;2022-08-25T00:21:44;101661.86;;;21.43;86.74
22572;BME280;11452;53.368;14.658;2022-08-25T00:26:51;101649.38;;;21.41;86.64
22572;BME280;11452;53.368;14.658;2022-08-25T00:31:59;101647.05;;;21.36;86.97
22572;BME280;11452;53.368;14.658;2022-08-25T00:37:06;101644.47;;;21.35;87.48
22572;BME280;11452;53.368;14.658;2022-08-25T00:42:12;101648.28;;;21.38;87.54
22572;BME280;11452;53.368;14.658;2022-08-25T00:47:19;101652.97;;;21.41;88.09
22572;BME280;11452;53.368;14.658;2022-08-25T00:52:34;101644.78;;;21.47;88.11
22572;BME280;11452;53.368;14.658;2022-08-25T00:57:51;101650.95;;;21.49;87.96
22572;BME280;11452;53.368;14.658;2022-08-25T01:02:55;101644.64;;;21.49;87.97
22572;BME280;11452;53.368;14.658;2022-08-25T01:08:01;101642.55;;;21.47;88.31
22572;BME280;11452;53.368;14.658;2022-08-25T01:13:20;101654.04;;;21.50;88.57
22572;BME280;11452;53.368;14.658;2022-08-25T01:18:27;101643.09;;;21.56;88.75
22572;BME280;11452;53.368;14.658;2022-08-25T01:23:33;101639.64;;;21.54;88.68
22572;BME280;11452;53.368;14.658;2022-08-25T01:28:40;101636.12;;;21.48;88.52
22572;BME280;11452;53.368;14.658;2022-08-25T01:33:47;101630.98;;;21.54;89.08
22572;BME280;11452;53.368;14.658;2022-08-25T01:38:53;101620.83;;;21.56;88.87
22572;BME280;11452;53.368;14.658;2022-08-25T01:43:58;101617.73;;;21.55;89.15
22572;BME280;11452;53.368;14.658;2022-08-25T01:49:05;101621.81;;;21.55;89.17
22572;BME280;11452;53.368;14.658;2022-08-25T01:54:10;101612.92;;;21.53;89.08
22572;BME280;11452;53.368;14.658;2022-08-25T01:59:18;101620.69;;;21.58;89.22
22572;BME280;11452;53.368;14.658;2022-08-25T02:04:28;101628.62;;;21.55;89.30
22572;BME280;11452;53.368;14.658;2022-08-25T02:09:37;101627.03;;;21.53;89.12
22572;BME280;11452;53.368;14.658;2022-08-25T02:14:42;101626.89;;;21.54;89.45
22572;BME280;11452;53.368;14.658;2022-08-25T02:19:48;101626.70;;;21.52;89.62
22572;BME280;11452;53.368;14.658;2022-08-25T02:24:54;101625.33;;;21.52;89.52
22572;BME280;11452;53.368;14.658;2022-08-25T02:29:59;101631.70;;;21.56;89.73
22572;BME280;11452;53.368;14.658;2022-08-25T02:35:06;101626.53;;;21.53;89.79
22572;BME280;11452;53.368;14.658;2022-08-25T02:40:13;101627.56;;;21.52;89.76
22572;BME280;11452;53.368;14.658;2022-08-25T02:45:18;101621.25;;;21.52;89.99
22572;BME280;11452;53.368;14.658;2022-08-25T02:50:24;101621.59;;;21.53;89.70
22572;BME280;11452;53.368;14.658;2022-08-25T02:55:30;101618.80;;;21.49;89.91
22572;BME280;11452;53.368;14.658;2022-08-25T03:00:37;101610.27;;;21.48;90.28
22572;BME280;11452;53.368;14.658;2022-08-25T03:05:43;101606.32;;;21.46;90.26
22572;BME280;11452;53.368;14.658;2022-08-25T03:10:48;101609.77;;;21.48;90.48
22572;BME280;11452;53.368;14.658;2022-08-25T03:15:55;101604.83;;;21.48;90.68
22572;BME280;11452;53.368;14.658;2022-08-25T03:21:00;101596.80;;;21.46;90.49
22572;BME280;11452;53.368;14.658;2022-08-25T03:26:07;101596.20;;;21.42;90.84
22572;BME280;11452;53.368;14.658;2022-08-25T03:31:33;101594.84;;;21.42;90.68
22572;BME280;11452;53.368;14.658;2022-08-25T03:36:39;101591.62;;;21.43;91.04
22572;BME280;11452;53.368;14.658;2022-08-25T03:41:45;101593.72;;;21.45;91.17
22572;BME280;11452;53.368;14.658;2022-08-25T03:46:51;101595.08;;;21.45;91.15
22572;BME280;11452;53.368;14.658;2022-08-25T03:51:57;101588.27;;;21.45;91.09
22572;BME280;11452;53.368;14.658;2022-08-25T03:57:03;101598.42;;;21.43;91.32
22572;BME280;11452;53.368;14.658;2022-08-25T04:02:09;101595.57;;;21.45;91.16
22572;BME280;11452;53.368;14.658;2022-08-25T04:07:15;101592.28;;;21.35;91.08
22572;BME280;11452;53.368;14.658;2022-08-25T04:12:21;101587.81;;;21.40;91.53
22572;BME280;11452;53.368;14.658;2022-08-25T04:17:27;101591.52;;;21.39;91.69
22572;BME280;11452;53.368;14.658;2022-08-25T04:22:33;101593.48;;;21.42;91.74
22572;BME280;11452;53.368;14.658;2022-08-25T04:27:41;101604.77;;;21.38;91.54
22572;BME280;11452;53.368;14.658;2022-08-25T04:32:47;101605.98;;;21.39;91.87
22572;BME280;11452;53.368;14.658;2022-08-25T04:37:53;101605.12;;;21.39;91.83
22572;BME280;11452;53.368;14.658;2022-08-25T04:42:58;101616.63;;;21.37;92.01
22572;BME280;11452;53.368;14.658;2022-08-25T04:48:04;101607.48;;;21.38;91.88
22572;BME280;11452;53.368;14.658;2022-08-25T04:53:11;101607.12;;;21.37;91.92
22572;BME280;11452;53.368;14.658;2022-08-25T04:58:16;101614.88;;;21.41;92.26
22572;BME280;11452;53.368;14.658;2022-08-25T05:03:22;101610.06;;;21.39;92.48
22572;BME280;11452;53.368;14.658;2022-08-25T05:08:28;101608.21;;;21.40;92.19
22572;BME280;11452;53.368;14.658;2022-08-25T05:13:35;101614.91;;;21.36;92.20
22572;BME280;11452;53.368;14.658;2022-08-25T05:18:41;101618.12;;;21.35;92.66
22572;BME280;11452;53.368;14.658;2022-08-25T05:23:47;101622.31;;;21.39;92.49
22572;BME280;11452;53.368;14.658;2022-08-25T05:28:54;101619.33;;;21.42;92.63
22572;BME280;11452;53.368;14.658;2022-08-25T05:33:59;101614.22;;;21.49;92.41
22572;BME280;11452;53.368;14.658;2022-08-25T05:39:07;101619.69;;;21.43;92.18
22572;BME280;11452;53.368;14.658;2022-08-25T05:44:13;101618.66;;;21.50;92.40
22572;BME280;11452;53.368;14.658;2022-08-25T05:49:22;101620.55;;;21.44;91.94
22572;BME280;11452;53.368;14.658;2022-08-25T05:54:27;101621.05;;;21.43;92.05
22572;BME280;11452;53.368;14.658;2022-08-25T05:59:35;101623.25;;;21.50;92.21
22572;BME280;11452;53.368;14.658;2022-08-25T06:04:41;101625.41;;;21.56;92.23
22572;BME280;11452;53.368;14.658;2022-08-25T06:09:47;101627.45;;;21.63;92.30
22572;BME280;11452;53.368;14.658;2022-08-25T06:14:53;101629.78;;;21.68;91.81
22572;BME280;11452;53.368;14.658;2022-08-25T06:19:59;101627.09;;;21.62;90.93
22572;BME280;11452;53.368;14.658;2022-08-25T06:25:07;101630.21;;;21.58;91.17
22572;BME280;11452;53.368;14.658;2022-08-25T06:30:16;101620.02;;;21.65;91.33
22572;BME280;11452;53.368;14.658;2022-08-25T06:35:23;101621.67;;;21.72;91.30
22572;BME280;11452;53.368;14.658;2022-08-25T06:40:28;101620.68;;;21.73;90.53
22572;BME280;11452;53.368;14.658;2022-08-25T06:45:35;101626.63;;;21.72;90.35
22572;BME280;11452;53.368;14.658;2022-08-25T06:50:42;101624.40;;;21.72;89.93
22572;BME280;11452;53.368;14.658;2022-08-25T06:55:55;101622.50;;;21.78;89.71
22572;BME280;11452;53.368;14.658;2022-08-25T07:01:12;101625.32;;;21.82;89.61
22572;BME280;11452;53.368;14.658;2022-08-25T07:06:20;101617.65;;;21.82;88.90
22572;BME280;11452;53.368;14.658;2022-08-25T07:11:26;101611.00;;;21.90;89.26
22572;BME280;11452;53.368;14.658;2022-08-25T07:16:32;101612.53;;;22.03;89.23
22572;BME280;11452;53.368;14.658;2022-08-25T07:21:39;101608.55;;;22.17;88.40
22572;BME280;11452;53.368;14.658;2022-08-25T07:26:47;101605.00;;;22.26;88.30
22572;BME280;11452;53.368;14.658;2022-08-25T07:31:53;101596.41;;;22.40;87.82
22572;BME280;11452;53.368;14.658;2022-08-25T07:36:59;101596.28;;;22.61;87.35
22572;BME280;11452;53.368;14.658;2022-08-25T07:42:08;101594.33;;;22.67;86.36
22572;BME280;11452;53.368;14.658;2022-08-25T07:47:15;101597.44;;;22.88;86.37
22572;BME280;11452;53.368;14.658;2022-08-25T07:52:22;101599.49;;;23.09;84.57
22572;BME280;11452;53.368;14.658;2022-08-25T07:57:29;101599.70;;;23.02;84.20
22572;BME280;11452;53.368;14.658;2022-08-25T08:02:36;101599.20;;;23.02;83.57
22572;BME280;11452;53.368;14.658;2022-08-25T08:07:42;101599.45;;;23.28;83.52
22572;BME280;11452;53.368;14.658;2022-08-25T08:12:48;101593.22;;;23.45;82.64
22572;BME280;11452;53.368;14.658;2022-08-25T08:17:54;101589.53;;;23.60;81.61
22572;BME280;11452;53.368;14.658;2022-08-25T08:23:01;101590.28;;;23.43;79.63
22572;BME280;11452;53.368;14.658;2022-08-25T08:28:09;101584.95;;;23.51;80.61
22572;BME280;11452;53.368;14.658;2022-08-25T08:33:20;101580.81;;;23.70;79.79
22572;BME280;11452;53.368;14.658;2022-08-25T08:38:26;101576.41;;;23.87;80.08
22572;BME280;11452;53.368;14.658;2022-08-25T08:43:32;101586.26;;;23.98;78.98
22572;BME280;11452;53.368;14.658;2022-08-25T08:48:51;101594.36;;;24.03;78.04
22572;BME280;11452;53.368;14.658;2022-08-25T08:54:04;101586.55;;;24.22;78.31
22572;BME280;11452;53.368;14.658;2022-08-25T08:59:12;101581.02;;;24.45;78.00
22572;BME280;11452;53.368;14.658;2022-08-25T09:04:23;101581.73;;;24.65;77.29
22572;BME280;11452;53.368;14.658;2022-08-25T09:09:33;101581.59;;;24.71;75.81
22572;BME280;11452;53.368;14.658;2022-08-25T09:20:14;101574.22;;;24.89;75.28
22572;BME280;11452;53.368;14.658;2022-08-25T09:31:03;101558.53;;;25.13;73.53
22572;BME280;11452;53.368;14.658;2022-08-25T09:36:09;101561.69;;;25.26;73.66
22572;BME280;11452;53.368;14.658;2022-08-25T09:41:34;101557.16;;;25.43;72.88
22572;BME280;11452;53.368;14.658;2022-08-25T09:46:28;101549.06;;;25.59;72.43
22572;BME280;11452;53.368;14.658;2022-08-25T09:51:36;101545.22;;;25.82;72.59
22572;BME280;11452;53.368;14.658;2022-08-25T09:56:48;101542.73;;;26.05;71.29
22572;BME280;11452;53.368;14.658;2022-08-25T10:01:57;101541.22;;;26.10;70.64
22572;BME280;11452;53.368;14.658;2022-08-25T10:07:20;101537.28;;;26.13;69.47
22572;BME280;11452;53.368;14.658;2022-08-25T10:12:35;101523.22;;;26.08;68.72
22572;BME280;11452;53.368;14.658;2022-08-25T10:17:41;101517.55;;;26.05;68.91
22572;BME280;11452;53.368;14.658;2022-08-25T10:22:48;101511.43;;;26.28;69.08
22572;BME280;11452;53.368;14.658;2022-08-25T10:33:55;101500.66;;;26.38;67.97
22572;BME280;11452;53.368;14.658;2022-08-25T10:39:01;101492.80;;;26.51;67.63
22572;BME280;11452;53.368;14.658;2022-08-25T10:44:36;101487.66;;;26.69;66.77
22572;BME280;11452;53.368;14.658;2022-08-25T10:55:30;101477.68;;;26.88;65.78
22572;BME280;11452;53.368;14.658;2022-08-25T11:00:37;101476.45;;;26.90;64.63
22572;BME280;11452;53.368;14.658;2022-08-25T11:06:03;101478.88;;;27.02;65.03
22572;BME280;11452;53.368;14.658;2022-08-25T11:11:33;101470.25;;;27.17;64.02
22572;BME280;11452;53.368;14.658;2022-08-25T11:16:42;101469.23;;;27.10;63.33
22572;BME280;11452;53.368;14.658;2022-08-25T11:22:00;101459.31;;;27.05;62.80
22572;BME280;11452;53.368;14.658;2022-08-25T11:27:00;101452.05;;;27.20;63.09
22572;BME280;11452;53.368;14.658;2022-08-25T11:32:07;101451.48;;;27.33;62.56
22572;BME280;11452;53.368;14.658;2022-08-25T11:37:19;101445.22;;;27.47;62.02
22572;BME280;11452;53.368;14.658;2022-08-25T11:47:54;101442.22;;;27.69;61.68
22572;BME280;11452;53.368;14.658;2022-08-25T12:03:48;101428.75;;;28.05;59.41
22572;BME280;11452;53.368;14.658;2022-08-25T12:30:37;101400.16;;;28.55;57.99
22572;BME280;11452;53.368;14.658;2022-08-25T12:35:56;101399.31;;;28.70;57.52
22572;BME280;11452;53.368;14.658;2022-08-25T12:41:09;101383.80;;;28.91;56.90
22572;BME280;11452;53.368;14.658;2022-08-25T12:57:01;101381.09;;;29.27;55.02
22572;BME280;11452;53.368;14.658;2022-08-25T13:18:49;101361.48;;;29.26;55.33
22572;BME280;11452;53.368;14.658;2022-08-25T13:23:57;101363.24;;;29.23;54.13
22572;BME280;11452;53.368;14.658;2022-08-25T13:29:18;101364.71;;;29.15;54.14
22572;BME280;11452;53.368;14.658;2022-08-25T13:34:28;101363.67;;;29.16;53.96
22572;BME280;11452;53.368;14.658;2022-08-25T13:39:37;101359.87;;;29.17;54.04
22572;BME280;11452;53.368;14.658;2022-08-25T13:44:44;101351.25;;;29.46;54.67
22572;BME280;11452;53.368;14.658;2022-08-25T13:49:52;101347.69;;;29.52;53.81
22572;BME280;11452;53.368;14.658;2022-08-25T13:55:00;101339.84;;;29.49;53.71
22572;BME280;11452;53.368;14.658;2022-08-25T14:00:09;101338.24;;;29.40;53.17
22572;BME280;11452;53.368;14.658;2022-08-25T14:05:28;101266.84;;;28.87;53.33
22572;BME280;11452;53.368;14.658;2022-08-25T14:10:42;101320.88;;;29.24;53.36
22572;BME280;11452;53.368;14.658;2022-08-25T14:15:48;101320.45;;;29.17;53.48
22572;BME280;11452;53.368;14.658;2022-08-25T14:20:55;101313.55;;;29.32;53.49
22572;BME280;11452;53.368;14.658;2022-08-25T14:26:01;101302.83;;;29.33;53.06
22572;BME280;11452;53.368;14.658;2022-08-25T14:31:14;101302.12;;;29.24;53.32
22572;BME280;11452;53.368;14.658;2022-08-25T14:36:22;101308.93;;;29.43;53.01
22572;BME280;11452;53.368;14.658;2022-08-25T14:41:29;101299.55;;;29.48;52.60
22572;BME280;11452;53.368;14.658;2022-08-25T14:46:37;101295.27;;;29.56;52.94
22572;BME280;11452;53.368;14.658;2022-08-25T14:51:44;101292.46;;;29.60;52.59
22572;BME280;11452;53.368;14.658;2022-08-25T14:56:52;101293.18;;;29.58;52.26
22572;BME280;11452;53.368;14.658;2022-08-25T15:01:59;101285.16;;;29.31;52.33
22572;BME280;11452;53.368;14.658;2022-08-25T15:07:05;101282.17;;;29.22;52.51
22572;BME280;11452;53.368;14.658;2022-08-25T15:12:12;101284.52;;;29.14;53.46
22572;BME280;11452;53.368;14.658;2022-08-25T15:17:20;101275.34;;;29.07;54.14
22572;BME280;11452;53.368;14.658;2022-08-25T15:22:26;101269.55;;;29.02;54.65
22572;BME280;11452;53.368;14.658;2022-08-25T15:27:32;101271.45;;;29.02;55.00
22572;BME280;11452;53.368;14.658;2022-08-25T15:32:37;101267.94;;;29.18;55.52
22572;BME280;11452;53.368;14.658;2022-08-25T15:37:43;101256.67;;;29.24;55.88
22572;BME280;11452;53.368;14.658;2022-08-25T15:42:50;101260.13;;;29.33;55.36
22572;BME280;11452;53.368;14.658;2022-08-25T15:47:56;101260.99;;;29.22;54.73
22572;BME280;11452;53.368;14.658;2022-08-25T15:53:03;101250.09;;;29.04;54.63
22572;BME280;11452;53.368;14.658;2022-08-25T15:58:10;101248.42;;;28.88;54.83
22572;BME280;11452;53.368;14.658;2022-08-25T16:03:16;101244.44;;;28.90;55.52
22572;BME280;11452;53.368;14.658;2022-08-25T16:08:22;101238.94;;;28.90;55.37
22572;BME280;11452;53.368;14.658;2022-08-25T16:13:28;101236.80;;;28.82;56.32
22572;BME280;11452;53.368;14.658;2022-08-25T16:18:35;101227.13;;;28.97;56.24
22572;BME280;11452;53.368;14.658;2022-08-25T16:23:41;101214.70;;;29.11;56.83
22572;BME280;11452;53.368;14.658;2022-08-25T16:28:47;101219.48;;;29.24;56.96
22572;BME280;11452;53.368;14.658;2022-08-25T16:33:53;101220.13;;;29.15;55.93
22572;BME280;11452;53.368;14.658;2022-08-25T16:39:00;101214.67;;;28.90;56.74
22572;BME280;11452;53.368;14.658;2022-08-25T16:44:06;101214.34;;;29.00;57.03
22572;BME280;11452;53.368;14.658;2022-08-25T16:49:14;101202.34;;;28.97;57.55
22572;BME280;11452;53.368;14.658;2022-08-25T16:54:20;101197.66;;;28.76;57.42
22572;BME280;11452;53.368;14.658;2022-08-25T16:59:44;101191.50;;;28.59;58.14
22572;BME280;11452;53.368;14.658;2022-08-25T17:04:49;101197.61;;;28.65;58.80
22572;BME280;11452;53.368;14.658;2022-08-25T17:09:57;101192.30;;;28.64;58.87
22572;BME280;11452;53.368;14.658;2022-08-25T17:15:03;101190.87;;;28.57;58.93
22572;BME280;11452;53.368;14.658;2022-08-25T17:20:09;101186.59;;;28.40;58.82
22572;BME280;11452;53.368;14.658;2022-08-25T17:25:15;101186.17;;;28.17;59.19
22572;BME280;11452;53.368;14.658;2022-08-25T17:30:21;101185.08;;;28.08;59.81
22572;BME280;11452;53.368;14.658;2022-08-25T17:35:28;101184.00;;;27.98;60.08
22572;BME280;11452;53.368;14.658;2022-08-25T17:40:34;101184.55;;;27.93;60.55
22572;BME280;11452;53.368;14.658;2022-08-25T17:45:41;101182.88;;;27.88;60.51
22572;BME280;11452;53.368;14.658;2022-08-25T17:50:47;101183.80;;;27.66;61.22
22572;BME280;11452;53.368;14.658;2022-08-25T17:56:02;101183.06;;;27.49;61.75
22572;BME280;11452;53.368;14.658;2022-08-25T18:01:19;101183.76;;;27.29;62.10
22572;BME280;11452;53.368;14.658;2022-08-25T18:06:27;101187.34;;;27.10;62.65
22572;BME280;11452;53.368;14.658;2022-08-25T18:11:34;101186.77;;;26.96;63.32
22572;BME280;11452;53.368;14.658;2022-08-25T18:16:40;101193.34;;;26.83;63.57
22572;BME280;11452;53.368;14.658;2022-08-25T18:21:46;101204.73;;;26.72;64.24
22572;BME280;11452;53.368;14.658;2022-08-25T18:26:51;101204.95;;;26.62;64.43
22572;BME280;11452;53.368;14.658;2022-08-25T18:31:57;101200.38;;;26.50;64.92
22572;BME280;11452;53.368;14.658;2022-08-25T18:37:04;101197.52;;;26.36;65.10
22572;BME280;11452;53.368;14.658;2022-08-25T18:42:12;101119.45;;;25.72;65.33
22572;BME280;11452;53.368;14.658;2022-08-25T18:47:19;101201.02;;;26.13;66.16
22572;BME280;11452;53.368;14.658;2022-08-25T18:52:25;101203.77;;;26.01;66.19
22572;BME280;11452;53.368;14.658;2022-08-25T18:57:34;101206.03;;;25.90;66.44
22572;BME280;11452;53.368;14.658;2022-08-25T19:02:50;101206.55;;;25.81;67.01
22572;BME280;11452;53.368;14.658;2022-08-25T19:07:57;101208.46;;;25.68;67.17
22572;BME280;11452;53.368;14.658;2022-08-25T19:13:04;101207.91;;;25.61;67.91
22572;BME280;11452;53.368;14.658;2022-08-25T19:18:11;101199.37;;;25.47;68.12
22572;BME280;11452;53.368;14.658;2022-08-25T19:23:19;101203.98;;;25.43;68.63
22572;BME280;11452;53.368;14.658;2022-08-25T19:28:25;101210.50;;;25.30;68.88
22572;BME280;11452;53.368;14.658;2022-08-25T19:33:32;101208.11;;;25.18;69.20
22572;BME280;11452;53.368;14.658;2022-08-25T19:38:40;101211.00;;;25.13;69.79
22572;BME280;11452;53.368;14.658;2022-08-25T19:43:48;101219.36;;;25.07;70.18
22572;BME280;11452;53.368;14.658;2022-08-25T19:48:56;101222.46;;;25.04;70.30
22572;BME280;11452;53.368;14.658;2022-08-25T19:54:06;101219.86;;;24.95;70.72
22572;BME280;11452;53.368;14.658;2022-08-25T19:59:13;101219.97;;;24.89;70.97
22572;BME280;11452;53.368;14.658;2022-08-25T20:04:21;101213.99;;;24.81;71.25
22572;BME280;11452;53.368;14.658;2022-08-25T20:09:27;101218.75;;;24.75;71.72
22572;BME280;11452;53.368;14.658;2022-08-25T20:14:35;101211.20;;;24.69;72.03
22572;BME280;11452;53.368;14.658;2022-08-25T20:19:41;101211.20;;;24.61;72.22
22572;BME280;11452;53.368;14.658;2022-08-25T20:24:47;101206.56;;;24.58;72.46
22572;BME280;11452;53.368;14.658;2022-08-25T20:29:55;101206.36;;;24.51;72.76
22572;BME280;11452;53.368;14.658;2022-08-25T20:35:03;101208.41;;;24.45;73.16
22572;BME280;11452;53.368;14.658;2022-08-25T20:40:13;101201.18;;;24.36;73.27
22572;BME280;11452;53.368;14.658;2022-08-25T20:45:21;101214.56;;;24.97;71.34
22572;BME280;11452;53.368;14.658;2022-08-25T20:50:27;101214.02;;;24.39;73.23
22572;BME280;11452;53.368;14.658;2022-08-25T20:55:32;101207.08;;;24.23;73.94
22572;BME280;11452;53.368;14.658;2022-08-25T21:00:44;101214.02;;;24.13;74.34
22572;BME280;11452;53.368;14.658;2022-08-25T21:05:50;101219.13;;;24.08;74.79
22572;BME280;11452;53.368;14.658;2022-08-25T21:10:57;101209.86;;;24.01;75.02
22572;BME280;11452;53.368;14.658;2022-08-25T21:16:03;101208.77;;;23.94;75.47
22572;BME280;11452;53.368;14.658;2022-08-25T21:21:10;101207.09;;;23.93;75.90
22572;BME280;11452;53.368;14.658;2022-08-25T21:26:24;101204.88;;;23.93;76.30
22572;BME280;11452;53.368;14.658;2022-08-25T21:31:31;101207.25;;;23.92;76.44
22572;BME280;11452;53.368;14.658;2022-08-25T21:36:37;101202.27;;;23.87;76.72
22572;BME280;11452;53.368;14.658;2022-08-25T21:41:43;101200.39;;;23.88;76.87
22572;BME280;11452;53.368;14.658;2022-08-25T21:46:50;101199.66;;;23.81;76.72
22572;BME280;11452;53.368;14.658;2022-08-25T21:51:57;101197.59;;;23.79;76.98
22572;BME280;11452;53.368;14.658;2022-08-25T21:57:05;101192.45;;;23.76;77.22
22572;BME280;11452;53.368;14.658;2022-08-25T22:02:12;101185.43;;;23.70;77.28
22572;BME280;11452;53.368;14.658;2022-08-25T22:07:21;101180.29;;;23.67;77.43
22572;BME280;11452;53.368;14.658;2022-08-25T22:12:28;101184.50;;;23.61;77.56
22572;BME280;11452;53.368;14.658;2022-08-25T22:17:34;101177.83;;;23.56;77.81
22572;BME280;11452;53.368;14.658;2022-08-25T22:22:39;101175.19;;;23.50;78.01
22572;BME280;11452;53.368;14.658;2022-08-25T22:27:45;101172.73;;;23.43;78.25
22572;BME280;11452;53.368;14.658;2022-08-25T22:32:52;101172.23;;;23.43;78.46
22572;BME280;11452;53.368;14.658;2022-08-25T22:37:59;101171.98;;;23.33;78.65
22572;BME280;11452;53.368;14.658;2022-08-25T22:43:06;101166.69;;;23.31;79.13
22572;BME280;11452;53.368;14.658;2022-08-25T22:48:13;101168.20;;;23.30;79.16
22572;BME280;11452;53.368;14.658;2022-08-25T22:53:19;101159.23;;;23.20;79.03
22572;BME280;11452;53.368;14.658;2022-08-25T22:58:26;101166.75;;;23.18;79.33
22572;BME280;11452;53.368;14.658;2022-08-25T23:03:32;101165.34;;;23.13;79.50
22572;BME280;11452;53.368;14.658;2022-08-25T23:08:38;101164.64;;;23.11;79.63
22572;BME280;11452;53.368;14.658;2022-08-25T23:13:45;101157.47;;;23.10;80.00
22572;BME280;11452;53.368;14.658;2022-08-25T23:18:51;101150.61;;;23.06;80.10
22572;BME280;11452;53.368;14.658;2022-08-25T23:23:57;101150.41;;;23.04;80.20
22572;BME280;11452;53.368;14.658;2022-08-25T23:29:03;101145.81;;;23.04;80.54
22572;BME280;11452;53.368;14.658;2022-08-25T23:34:11;101141.02;;;23.02;81.07
22572;BME280;11452;53.368;14.658;2022-08-25T23:39:17;101141.92;;;23.07;81.29
22572;BME280;11452;53.368;14.658;2022-08-25T23:44:25;101128.13;;;23.08;81.46
22572;BME280;11452;53.368;14.658;2022-08-25T23:49:31;101124.39;;;23.09;81.62
22572;BME280;11452;53.368;14.658;2022-08-25T23:54:38;101126.27;;;23.09;81.79
22572;BME280;11452;53.368;14.658;2022-08-25T23:59:44;101114.30;;;23.06;81.89
